Time;durP1;ratioP1;P1;durP2;ratioP2;P2;SDS_P1;SDS_P2;PMS_P1;PMS_P2;Temp;Humidity;BMP_temperature;BMP_pressure;BME280_temperature;BME280_humidity;BME280_pressure;Samples;Min_cycle;Max_cycle;Signal;HPM_P1;HPM_P2
2023/02/14 00:01:21;;;;;;;;;75.67;66.00;;;;;7.68;67.60;102452.00;4955535;28;55088;-69
2023/02/14 00:03:48;;;;;;;;;77.67;66.33;;;;;7.66;68.01;102457.25;4956410;28;45740;-69
2023/02/14 00:06:14;;;;;;;;;82.33;72.00;;;;;7.63;67.97;102452.00;4956826;28;45601;-69
2023/02/14 00:08:43;;;;;;;;;77.33;67.33;;;;;7.59;67.38;102451.09;4956441;28;45447;-69
2023/02/14 00:11:08;;;;;;;;;75.00;64.00;;;;;7.57;67.92;102452.84;4956940;28;45403;-69
2023/02/14 00:13:34;;;;;;;;;78.00;68.67;;;;;7.49;67.75;102440.63;4969397;28;45483;-70
2023/02/14 00:15:59;;;;;;;;;77.33;70.00;;;;;7.53;68.15;102448.47;4991518;28;45337;-69
2023/02/14 00:19:02;;;;;;;;;76.67;65.67;;;;;7.52;68.22;102453.72;4982957;28;45455;-69
2023/02/14 00:21:12;;;;;;;;;78.33;64.00;;;;;7.42;68.93;102445.84;5023361;28;45446;-69
2023/02/14 00:23:38;;;;;;;;;79.00;67.67;;;;;7.44;68.45;102453.69;4975786;28;45409;-69
2023/02/14 00:26:03;;;;;;;;;79.67;67.67;;;;;7.38;68.18;102446.66;4979945;28;45286;-70
2023/02/14 00:28:29;;;;;;;;;76.33;64.00;;;;;7.38;68.79;102445.81;4973998;28;47381;-69
2023/02/14 00:30:56;;;;;;;;;77.67;66.67;;;;;7.34;69.22;102447.53;4956870;28;45324;-70
2023/02/14 00:33:21;;;;;;;;;77.00;65.67;;;;;7.28;68.70;102445.78;5076644;27;45333;-70
2023/02/14 00:35:47;;;;;;;;;77.67;66.33;;;;;7.27;69.07;102445.75;4973480;28;46088;-69
2023/02/14 00:38:12;;;;;;;;;82.00;68.00;;;;;7.22;69.12;102437.91;4990590;27;46057;-69
2023/02/14 00:40:37;;;;;;;;;80.33;70.00;;;;;7.19;69.06;102437.00;4985333;28;58725;-72
2023/02/14 00:43:03;;;;;;;;;80.00;71.33;;;;;7.22;69.71;102447.50;4979561;28;53161;-70
2023/02/14 00:45:28;;;;;;;;;77.33;64.33;;;;;7.18;70.06;102440.50;4974238;28;45509;-69
2023/02/14 00:47:53;;;;;;;;;79.67;68.00;;;;;7.18;69.89;102433.53;4985933;28;45432;-69
2023/02/14 00:50:19;;;;;;;;;76.00;63.67;;;;;7.12;70.58;102430.91;4978695;28;49165;-69
2023/02/14 00:52:44;;;;;;;;;79.67;68.33;;;;;7.11;69.55;102422.16;4977521;28;45461;-70
2023/02/14 00:55:09;;;;;;;;;79.67;69.00;;;;;7.08;70.38;102424.75;4968347;28;45756;-70
2023/02/14 00:57:35;;;;;;;;;83.33;70.67;;;;;7.08;70.21;102423.91;4977798;28;58837;-72
2023/02/14 01:00:00;;;;;;;;;82.67;72.00;;;;;7.07;70.16;102416.91;4974092;28;45783;-69
2023/02/14 01:02:25;;;;;;;;;82.33;70.33;;;;;7.06;70.49;102415.16;4975097;28;45557;-70
2023/02/14 01:04:51;;;;;;;;;81.33;71.67;;;;;7.01;70.89;102415.13;4957450;28;50084;-70
2023/02/14 01:07:16;;;;;;;;;81.67;72.33;;;;;6.99;70.81;102414.25;4955012;28;45644;-69
2023/02/14 01:09:41;;;;;;;;;82.33;71.33;;;;;6.98;70.73;102423.88;4969959;28;45336;-69
2023/02/14 01:12:07;;;;;;;;;83.00;70.33;;;;;6.94;70.84;102416.88;4972280;28;45448;-70
2023/02/14 01:14:32;;;;;;;;;86.00;78.67;;;;;6.91;70.69;102416.84;4973168;28;45450;-69
2023/02/14 01:16:57;;;;;;;;;81.67;72.33;;;;;6.90;71.67;102414.22;4959799;28;46482;-70
2023/02/14 01:19:23;;;;;;;;;79.33;68.00;;;;;6.90;71.66;102416.84;4976754;28;45390;-72
2023/02/14 01:21:48;;;;;;;;;83.33;73.67;;;;;6.86;71.67;102414.19;4973133;28;45520;-70
2023/02/14 01:24:13;;;;;;;;;81.00;67.00;;;;;6.80;72.15;102406.31;4988537;28;45889;-71
2023/02/14 01:26:40;;;;;;;;;82.00;73.00;;;;;6.84;71.92;102413.31;4978666;27;46101;-70
2023/02/14 01:29:05;;;;;;;;;82.33;73.67;;;;;6.83;71.90;102415.91;4973897;27;45394;-68
2023/02/14 01:31:32;;;;;;;;;82.00;70.33;;;;;6.72;72.85;102403.66;4972683;28;45461;-69
2023/02/14 01:33:59;;;;;;;;;80.67;69.33;;;;;6.81;72.46;102417.66;4972320;28;45490;-69
2023/02/14 01:36:50;;;;;;;;;87.00;79.33;;;;;6.76;71.84;102417.63;4974024;28;46166;-69
2023/02/14 01:39:17;;;;;;;;;82.33;73.33;;;;;6.73;72.23;102420.25;4990066;27;45450;-68
2023/02/14 01:41:47;;;;;;;;;80.00;70.33;;;;;6.72;72.71;102423.72;4954947;28;45366;-69
2023/02/14 01:44:12;;;;;;;;;83.67;74.67;;;;;6.71;72.78;102416.75;4961233;28;45516;-69
2023/02/14 01:46:38;;;;;;;;;85.00;75.33;;;;;6.69;72.60;102421.94;4957699;28;45399;-70
2023/02/14 01:49:27;;;;;;;;;88.33;77.00;;;;;6.52;72.63;102395.72;4985863;28;45206;-69
2023/02/14 01:51:59;;;;;;;;;85.67;74.67;;;;;6.63;72.87;102415.81;4974502;28;45405;-69
2023/02/14 01:54:28;;;;;;;;;81.67;71.33;;;;;6.64;72.64;102417.56;4968115;28;45386;-71
2023/02/14 01:56:58;;;;;;;;;82.00;74.00;;;;;6.52;72.99;102408.78;4987769;28;46404;-69
2023/02/14 01:59:27;;;;;;;;;83.33;75.33;;;;;6.60;73.63;102415.81;4962417;28;45531;-69
2023/02/14 02:01:53;;;;;;;;;85.33;72.67;;;;;6.55;73.27;102410.53;4968743;28;45616;-70
2023/02/14 02:04:25;;;;;;;;;86.00;77.33;;;;;6.56;73.56;102412.28;4969619;28;45358;-69
2023/02/14 02:06:55;;;;;;;;;84.33;76.00;;;;;6.51;73.81;102414.00;4954850;28;46106;-70
2023/02/14 02:09:34;;;;;;;;;83.33;73.33;;;;;6.54;73.71;102416.63;4969844;28;45586;-70
2023/02/14 02:12:00;;;;;;;;;80.67;72.33;;;;;6.53;73.88;102413.16;4973026;28;45457;-70
2023/02/14 02:14:26;;;;;;;;;86.00;78.67;;;;;6.52;73.46;102410.50;4968907;28;45470;-69
2023/02/14 02:17:25;;;;;;;;;85.00;75.67;;;;;6.51;74.09;102411.38;4974714;28;46596;-71
2023/02/14 02:20:24;;;;;;;;;84.33;74.33;;;;;6.50;74.05;102410.53;4964818;28;46187;-70
2023/02/14 02:23:08;;;;;;;;;83.00;74.33;;;;;6.48;73.53;102412.25;4971605;28;45220;-70
2023/02/14 02:25:42;;;;;;;;;84.67;76.00;;;;;6.46;73.66;102410.47;4990004;28;46797;-68
2023/02/14 02:28:39;;;;;;;;;81.67;66.67;;;;;6.44;73.46;102410.50;5002532;28;45275;-69
2023/02/14 02:31:46;;;;;;;;;86.00;77.00;;;;;6.42;74.56;102409.59;4974245;28;45291;-69
2023/02/14 02:34:23;;;;;;;;;84.67;74.33;;;;;6.41;74.51;102411.31;4964726;28;45370;-70
2023/02/14 02:37:18;;;;;;;;;84.67;74.00;;;;;6.34;73.58;102413.88;4973525;28;45411;-70
2023/02/14 02:39:57;;;;;;;;;84.00;71.33;;;;;6.33;74.06;102413.00;4973172;28;46287;-68
2023/02/14 02:42:34;;;;;;;;;86.33;76.67;;;;;6.34;74.84;102412.16;4966634;28;45355;-69
2023/02/14 02:45:15;;;;;;;;;79.33;64.33;;;;;6.33;74.94;102412.13;4961882;28;46079;-69
2023/02/14 02:47:51;;;;;;;;;86.00;79.33;;;;;6.33;74.41;102406.91;4971287;28;45308;-68
2023/02/14 02:53:50;;;;;;;;;83.67;73.67;;;;;6.21;74.28;102392.03;5031526;28;45521;-69
2023/02/14 02:59:26;;;;;;;;;82.00;71.00;;;;;6.24;74.80;102402.50;4990906;28;45491;-71
2023/02/14 03:02:19;;;;;;;;;84.67;74.33;;;;;6.24;74.67;102403.34;4971731;28;45745;-70
2023/02/14 03:04:53;;;;;;;;;87.67;80.67;;;;;6.22;75.86;102397.25;4972687;28;45366;-69
2023/02/14 03:07:33;;;;;;;;;86.33;79.00;;;;;6.22;75.00;102394.63;4969337;28;45266;-70
2023/02/14 03:10:01;;;;;;;;;87.33;78.33;;;;;6.20;75.25;102391.13;4990693;28;45622;-70
2023/02/14 03:12:32;;;;;;;;;85.67;78.33;;;;;6.22;75.08;102386.78;4971088;28;46167;-69
2023/02/14 03:15:34;;;;;;;;;84.67;76.67;;;;;6.21;75.34;102387.66;4971719;28;45330;-70
2023/02/14 03:18:12;;;;;;;;;86.33;75.33;;;;;6.21;75.08;102386.78;4975872;28;45441;-68
2023/02/14 03:20:56;;;;;;;;;85.00;76.00;;;;;6.20;75.01;102393.75;4963341;28;45247;-68
2023/02/14 03:23:28;;;;;;;;;87.00;79.00;;;;;6.21;76.22;102392.88;4988527;28;46304;-69
2023/02/14 03:26:19;;;;;;;;;90.00;75.33;;;;;6.18;75.44;102392.84;4971987;28;45489;-70
2023/02/14 03:29:09;;;;;;;;;86.00;75.33;;;;;6.16;75.79;102391.97;4971649;28;45351;-71
2023/02/14 03:31:46;;;;;;;;;87.00;81.00;;;;;6.16;75.17;102385.88;4955908;28;45470;-69
2023/02/14 03:34:29;;;;;;;;;89.33;80.00;;;;;6.13;75.79;102384.09;4954939;28;46285;-71
2023/02/14 03:37:04;;;;;;;;;87.33;80.67;;;;;6.12;75.85;102382.34;4954427;28;45389;-70
2023/02/14 03:39:42;;;;;;;;;86.00;79.33;;;;;6.09;75.65;102385.84;4953554;28;45624;-68
2023/02/14 03:42:15;;;;;;;;;86.33;78.33;;;;;6.06;76.10;102377.97;4963218;28;45391;-70
2023/02/14 03:44:43;;;;;;;;;85.67;73.33;;;;;6.05;75.59;102389.28;4975337;28;46358;-69
2023/02/14 03:47:15;;;;;;;;;86.00;74.33;;;;;6.00;75.78;102383.13;4960548;28;45443;-69
2023/02/14 03:49:46;;;;;;;;;88.33;77.33;;;;;6.01;76.35;102390.13;4990012;28;45480;-69
2023/02/14 03:52:13;;;;;;;;;87.00;76.33;;;;;5.95;76.10;102380.47;4975843;28;45246;-69
2023/02/14 03:54:40;;;;;;;;;84.67;76.00;;;;;5.98;76.70;102390.06;4972708;28;46259;-70
2023/02/14 03:57:23;;;;;;;;;86.67;77.00;;;;;5.96;76.32;102389.19;4975418;28;45389;-69
2023/02/14 03:59:49;;;;;;;;;86.67;78.67;;;;;5.87;76.64;102379.53;4974341;28;45355;-70
2023/02/14 04:02:26;;;;;;;;;83.33;72.33;;;;;5.94;76.79;102390.91;4975585;28;45309;-68
2023/02/14 04:04:53;;;;;;;;;84.33;74.67;;;;;5.84;76.46;102377.78;4974750;28;45517;-71
2023/02/14 04:07:21;;;;;;;;;82.33;72.67;;;;;5.92;76.52;102390.88;4976405;28;45440;-71
2023/02/14 04:09:46;;;;;;;;;84.67;76.33;;;;;5.89;76.85;102383.03;4975258;28;45215;-69
2023/02/14 04:12:13;;;;;;;;;87.33;77.00;;;;;5.89;76.74;102383.03;4956790;28;45316;-69
2023/02/14 04:14:39;;;;;;;;;89.00;81.33;;;;;5.85;76.58;102394.31;4956058;28;46089;-70
2023/02/14 04:19:49;;;;;;;;;83.33;72.67;;;;;5.84;76.63;102390.84;4955852;28;45256;-69
2023/02/14 04:22:15;;;;;;;;;83.33;71.33;;;;;5.79;76.31;102386.41;4957100;28;45603;-70
2023/02/14 04:24:40;;;;;;;;;88.33;79.67;;;;;5.80;77.15;102390.78;4961063;28;46047;-70
2023/02/14 04:27:08;;;;;;;;;89.00;81.00;;;;;5.77;77.16;102394.22;4972133;28;46151;-69
2023/02/14 04:29:54;;;;;;;;;85.00;73.67;;;;;5.77;76.62;102399.44;4974212;28;45524;-68
2023/02/14 04:32:21;;;;;;;;;88.67;81.33;;;;;5.76;77.74;102396.84;4960782;27;45418;-69
2023/02/14 04:34:47;;;;;;;;;91.67;82.00;;;;;5.76;76.90;102397.69;4967392;28;47440;-69
2023/02/14 04:37:15;;;;;;;;;91.00;83.00;;;;;5.77;77.91;102398.59;4979298;28;45376;-69
2023/02/14 04:39:41;;;;;;;;;87.00;78.00;;;;;5.74;77.45;102388.97;4984564;28;45588;-69
2023/02/14 04:42:06;;;;;;;;;84.67;75.33;;;;;5.68;77.34;102381.97;4956144;28;45569;-69
2023/02/14 04:44:33;;;;;;;;;87.67;79.33;;;;;5.72;77.44;102387.22;4964060;28;45724;-67
2023/02/14 04:46:58;;;;;;;;;86.67;80.33;;;;;5.75;77.93;102393.34;4970138;28;46231;-69
2023/02/14 04:49:23;;;;;;;;;87.00;76.00;;;;;5.75;77.63;102389.88;4960375;28;45320;-68
2023/02/14 04:51:49;;;;;;;;;85.00;73.00;;;;;5.75;78.04;102387.25;5035538;28;45618;-70
2023/02/14 04:54:14;;;;;;;;;88.33;80.67;;;;;5.74;78.21;102388.13;4981273;28;54252;-69
2023/02/14 04:56:39;;;;;;;;;84.33;71.33;;;;;5.69;77.60;102378.50;4974959;28;45497;-69
2023/02/14 04:59:05;;;;;;;;;88.33;79.00;;;;;5.69;78.30;102383.72;4974340;28;45387;-68
2023/02/14 05:01:30;;;;;;;;;86.67;74.67;;;;;5.73;78.49;102383.75;4968025;28;45365;-69
2023/02/14 05:03:56;;;;;;;;;88.00;78.00;;;;;5.73;77.49;102394.19;4955292;28;54179;-69
2023/02/14 05:06:21;;;;;;;;;87.67;78.67;;;;;5.71;77.99;102404.63;4956003;28;45232;-70
2023/02/14 05:08:47;;;;;;;;;88.00;79.00;;;;;5.70;78.44;102398.53;4960233;28;45233;-68
2023/02/14 05:11:13;;;;;;;;;89.00;81.67;;;;;5.70;77.85;102403.75;4971919;28;45189;-70
2023/02/14 05:13:38;;;;;;;;;88.33;81.00;;;;;5.61;78.69;102384.50;4974446;28;45333;-70
2023/02/14 05:16:04;;;;;;;;;86.33;77.00;;;;;5.67;77.89;102398.50;4974357;27;45176;-68
2023/02/14 05:18:29;;;;;;;;;86.00;74.67;;;;;5.65;78.40;102395.00;4969577;28;45290;-70
2023/02/14 05:20:55;;;;;;;;;86.33;76.33;;;;;5.68;78.65;102399.38;4955302;28;45569;-68
2023/02/14 05:23:21;;;;;;;;;88.67;81.00;;;;;5.61;78.38;102384.50;4981449;28;45423;-69
2023/02/14 05:25:48;;;;;;;;;82.67;69.33;;;;;5.64;78.69;102392.38;4992428;27;45376;-69
2023/02/14 05:28:13;;;;;;;;;89.00;81.33;;;;;5.64;79.48;102395.88;4975786;28;45343;-70
2023/02/14 05:30:38;;;;;;;;;86.67;76.00;;;;;5.64;78.56;102393.25;4974188;28;45248;-69
2023/02/14 05:33:04;;;;;;;;;86.67;77.67;;;;;5.63;78.70;102394.13;4974226;28;45575;-70
2023/02/14 05:35:30;;;;;;;;;85.67;73.33;;;;;5.65;79.38;102392.41;4960762;28;45340;-70
2023/02/14 05:37:56;;;;;;;;;87.00;81.00;;;;;5.65;79.26;102389.78;4962049;28;45276;-69
2023/02/14 05:40:21;;;;;;;;;84.67;74.67;;;;;5.64;79.13;102379.31;4972977;28;45321;-69
2023/02/14 05:42:46;;;;;;;;;85.00;74.33;;;;;5.60;78.26;102377.53;4960910;28;45508;-69
2023/02/14 05:45:12;;;;;;;;;85.00;75.67;;;;;5.61;79.16;102377.56;4970628;28;45272;-70
2023/02/14 05:47:38;;;;;;;;;85.33;78.00;;;;;5.65;78.83;102381.06;4993757;28;45462;-71
2023/02/14 05:50:04;;;;;;;;;84.00;74.33;;;;;5.65;79.72;102378.44;4976047;28;45170;-69
2023/02/14 05:52:29;;;;;;;;;83.67;72.67;;;;;5.64;78.73;102374.09;4973339;28;46402;-67
2023/02/14 05:54:55;;;;;;;;;87.33;76.67;;;;;5.66;79.09;102374.97;4973400;28;56105;-69
2023/02/14 05:57:20;;;;;;;;;90.33;81.33;;;;;5.64;79.26;102377.59;4971812;28;45379;-69
2023/02/14 05:59:45;;;;;;;;;85.00;76.00;;;;;5.64;79.17;102376.69;4968978;28;46201;-68
2023/02/14 06:02:11;;;;;;;;;87.00;76.33;;;;;5.63;79.77;102375.84;4972437;28;64001;-70
2023/02/14 06:04:36;;;;;;;;;87.00;72.00;;;;;5.63;79.10;102377.56;4972507;28;45671;-69
2023/02/14 06:07:02;;;;;;;;;83.00;72.67;;;;;5.61;78.85;102384.50;4969866;28;45466;-67
2023/02/14 06:09:28;;;;;;;;;88.00;83.67;;;;;5.59;79.96;102387.13;4973736;28;45431;-69
2023/02/14 06:11:53;;;;;;;;;91.33;81.33;;;;;5.49;79.71;102364.41;4970567;28;45637;-69
2023/02/14 06:14:18;;;;;;;;;89.67;82.00;;;;;5.59;79.13;102381.91;4971898;28;45457;-69
2023/02/14 06:16:43;;;;;;;;;87.00;75.00;;;;;5.57;79.67;102383.63;4973955;28;45395;-67
2023/02/14 06:19:09;;;;;;;;;91.00;82.00;;;;;5.53;79.77;102377.47;4972284;28;45594;-68
2023/02/14 06:21:35;;;;;;;;;90.67;81.33;;;;;5.56;79.99;102385.34;4973430;28;45359;-69
2023/02/14 06:24:00;;;;;;;;;88.67;76.67;;;;;5.49;79.67;102370.47;4973759;28;45748;-69
2023/02/14 06:26:26;;;;;;;;;82.67;72.00;;;;;5.55;79.61;102380.13;4967140;28;45433;-73
2023/02/14 06:28:56;;;;;;;;;89.67;80.67;;;;;5.55;79.45;102390.56;4968782;28;45389;-71
2023/02/14 06:31:22;;;;;;;;;90.67;79.67;;;;;5.48;79.55;102380.91;5032501;28;46396;-69
2023/02/14 06:33:47;;;;;;;;;86.33;76.00;;;;;5.49;79.74;102380.06;5046835;27;45604;-69
2023/02/14 06:36:13;;;;;;;;;85.67;76.33;;;;;5.50;79.53;102385.28;4973719;28;45245;-68
2023/02/14 06:38:40;;;;;;;;;86.33;76.00;;;;;5.51;80.24;102379.19;4973588;28;45611;-69
2023/02/14 06:41:06;;;;;;;;;86.67;77.33;;;;;5.50;79.46;102376.59;4988429;28;46522;-69
2023/02/14 06:43:32;;;;;;;;;84.00;74.00;;;;;5.48;79.76;102370.47;4985113;28;45405;-66
2023/02/14 06:45:57;;;;;;;;;84.67;75.00;;;;;5.48;79.84;102379.16;5012616;28;45301;-67
2023/02/14 06:48:23;;;;;;;;;90.00;79.00;;;;;5.45;79.68;102378.28;5048229;27;45487;-67
2023/02/14 06:50:48;;;;;;;;;91.33;82.67;;;;;5.47;79.86;102377.41;4980287;27;46666;-68
2023/02/14 06:53:14;;;;;;;;;87.67;79.00;;;;;5.40;79.76;102363.44;4988980;28;45147;-70
2023/02/14 06:55:39;;;;;;;;;88.33;77.00;;;;;5.39;79.84;102364.31;4990213;28;45465;-68
2023/02/14 06:58:05;;;;;;;;;87.00;77.00;;;;;5.47;80.25;102374.81;4971166;27;45742;-70
2023/02/14 07:00:30;;;;;;;;;87.00;77.00;;;;;5.38;80.02;102362.56;4965412;28;49614;-72
2023/02/14 07:02:56;;;;;;;;;89.33;81.00;;;;;5.48;80.07;102378.31;4982058;28;45367;-71
2023/02/14 07:05:22;;;;;;;;;90.00;84.67;;;;;5.50;79.97;102387.88;4972553;28;45443;-68
2023/02/14 07:07:47;;;;;;;;;90.33;83.67;;;;;5.43;80.42;102370.41;4974114;28;45355;-68
2023/02/14 07:10:13;;;;;;;;;87.00;78.33;;;;;5.48;80.38;102383.53;4995398;28;45908;-70
2023/02/14 07:12:39;;;;;;;;;91.00;82.33;;;;;5.51;79.87;102386.16;5012933;27;45509;-77
2023/02/14 07:15:09;;;;;;;;;86.67;79.67;;;;;5.33;80.32;102361.63;4979455;28;45468;-71
2023/02/14 07:17:35;;;;;;;;;78.33;64.33;;;;;5.56;80.32;102394.91;4976687;28;45490;-68
2023/02/14 07:20:00;;;;;;;;;91.00;78.00;;;;;5.54;80.14;102392.28;5031331;28;45982;-70
2023/02/14 07:22:25;;;;;;;;;93.00;84.67;;;;;5.55;79.94;102398.38;4999002;28;45271;-67
2023/02/14 07:24:51;;;;;;;;;91.00;80.67;;;;;5.52;79.56;102401.81;5004804;28;45483;-70
2023/02/14 07:27:19;;;;;;;;;88.00;75.33;;;;;5.50;79.85;102400.94;5017179;28;45531;-69
2023/02/14 07:29:44;;;;;;;;;86.33;76.33;;;;;5.47;79.85;102403.50;5082007;27;45415;-72
2023/02/14 07:32:09;;;;;;;;;87.00;76.00;;;;;5.48;79.81;102394.81;5085138;27;45269;-72
2023/02/14 07:34:35;;;;;;;;;88.67;79.33;;;;;5.50;80.38;102400.94;5035529;28;45447;-72
2023/02/14 07:37:00;;;;;;;;;91.00;80.67;;;;;5.43;80.12;102386.06;4959627;28;45346;-71
2023/02/14 07:39:26;;;;;;;;;86.33;76.33;;;;;5.52;79.91;102400.97;4975115;28;45817;-71
2023/02/14 07:41:51;;;;;;;;;84.67;77.00;;;;;5.50;79.85;102408.78;4978782;28;45186;-71
2023/02/14 07:44:17;;;;;;;;;87.00;80.67;;;;;5.48;80.80;102399.19;4977692;28;45246;-71
2023/02/14 07:46:42;;;;;;;;;89.67;78.00;;;;;5.53;80.18;102402.72;5014514;28;45328;-71
2023/02/14 07:49:08;;;;;;;;;91.00;80.33;;;;;5.50;80.27;102392.25;4971241;28;48240;-71
2023/02/14 07:51:33;;;;;;;;;87.33;79.33;;;;;5.58;80.73;102400.13;4978463;28;45571;-70
2023/02/14 07:53:58;;;;;;;;;79.00;66.67;;;;;5.59;80.26;102401.88;4976852;28;45338;-74
2023/02/14 07:56:24;;;;;;;;;88.67;83.67;;;;;5.53;79.74;102379.22;4979247;28;45305;-70
2023/02/14 07:58:49;;;;;;;;;89.67;83.67;;;;;5.61;80.19;102389.72;4979636;28;45999;-72
2023/02/14 08:01:15;;;;;;;;;89.33;83.67;;;;;5.58;80.38;102385.38;4986148;28;45280;-70
2023/02/14 08:03:44;;;;;;;;;86.00;78.67;;;;;5.63;79.92;102390.63;4981885;28;45387;-70
2023/02/14 08:06:10;;;;;;;;;88.67;83.33;;;;;5.64;80.29;102385.41;4978448;28;45516;-69
2023/02/14 08:08:36;;;;;;;;;99.33;91.33;;;;;5.66;80.61;102388.03;4978702;28;46025;-70
2023/02/14 08:11:02;;;;;;;;;86.00;78.00;;;;;5.70;80.76;102390.69;4978779;28;45299;-68
2023/02/14 08:13:27;;;;;;;;;90.00;83.67;;;;;5.74;80.88;102386.38;4977389;28;45274;-71
2023/02/14 08:16:05;;;;;;;;;92.67;89.67;;;;;5.79;80.96;102394.25;4977584;28;45632;-72
2023/02/14 08:18:38;;;;;;;;;95.33;86.33;;;;;5.82;80.15;102389.91;4978520;28;45683;-70
2023/02/14 08:21:06;;;;;;;;;101.00;96.33;;;;;5.86;80.68;102390.84;4975801;28;45299;-71
2023/02/14 08:23:31;;;;;;;;;91.33;86.67;;;;;5.88;79.80;102386.50;4974068;28;45604;-70
2023/02/14 08:25:57;;;;;;;;;95.00;86.33;;;;;5.83;79.81;102372.53;4976059;27;45465;-69
2023/02/14 08:28:23;;;;;;;;;93.67;79.67;;;;;5.96;80.29;102386.56;4976901;28;45326;-68
2023/02/14 08:30:49;;;;;;;;;87.67;75.33;;;;;5.99;79.91;102384.84;4975503;28;45422;-70
2023/02/14 08:33:15;;;;;;;;;86.33;79.33;;;;;6.04;80.11;102391.88;4975247;28;45287;-68
2023/02/14 08:35:40;;;;;;;;;85.00;79.00;;;;;6.06;79.20;102384.94;4976346;28;45511;-69
2023/02/14 08:38:05;;;;;;;;;85.67;78.33;;;;;6.07;79.18;102394.50;4977544;28;45329;-74
2023/02/14 08:40:32;;;;;;;;;86.33;80.67;;;;;6.07;78.75;102394.50;4976154;28;45282;-70
2023/02/14 08:42:58;;;;;;;;;85.67;77.67;;;;;6.04;78.93;102391.88;4975775;28;45359;-67
2023/02/14 08:45:23;;;;;;;;;84.33;78.33;;;;;6.06;79.68;102400.59;4975757;28;45219;-71
2023/02/14 08:47:49;;;;;;;;;86.33;78.00;;;;;6.09;78.69;102403.25;4973728;28;46230;-70
2023/02/14 08:50:16;;;;;;;;;90.00;84.67;;;;;6.10;78.74;102400.66;4973384;28;45273;-70
2023/02/14 08:52:45;;;;;;;;;83.33;77.00;;;;;6.11;78.98;102404.13;4974599;28;45377;-70
2023/02/14 08:55:12;;;;;;;;;88.33;82.33;;;;;6.15;78.67;102413.75;4975008;28;45294;-69
2023/02/14 08:57:37;;;;;;;;;90.00;78.67;;;;;6.14;78.80;102402.44;4974089;28;46535;-69
2023/02/14 09:00:04;;;;;;;;;85.00;77.00;;;;;6.11;78.58;102406.75;4974357;28;45215;-72
2023/02/14 09:02:29;;;;;;;;;88.00;82.00;;;;;6.12;78.21;102403.25;4974679;28;45247;-70
2023/02/14 09:04:55;;;;;;;;;89.00;84.67;;;;;6.12;78.48;102404.16;4974631;28;45267;-70
2023/02/14 09:07:20;;;;;;;;;83.67;74.33;;;;;6.16;78.33;102406.78;4972991;28;47138;-70
2023/02/14 09:09:46;;;;;;;;;92.67;84.33;;;;;6.20;78.38;102408.56;4974640;28;45651;-71
2023/02/14 09:12:11;;;;;;;;;93.67;82.00;;;;;6.15;77.61;102400.66;4974865;28;45357;-71
2023/02/14 09:14:38;;;;;;;;;86.33;80.00;;;;;6.21;78.07;102398.09;4974322;28;45376;-71
2023/02/14 09:17:06;;;;;;;;;91.33;83.67;;;;;6.19;77.83;102385.91;4974466;28;45738;-70
2023/02/14 09:19:32;;;;;;;;;101.67;94.33;;;;;6.27;78.85;102395.53;4974467;28;45352;-71
2023/02/14 09:21:58;;;;;;;;;84.00;78.00;;;;;6.30;78.39;102386.84;4974588;28;45283;-71
2023/02/14 09:24:25;;;;;;;;;84.67;77.00;;;;;6.32;77.92;102379.91;4974367;28;45158;-71
2023/02/14 09:26:51;;;;;;;;;82.00;71.00;;;;;6.33;78.13;102375.53;4973794;28;47238;-69
2023/02/14 09:29:16;;;;;;;;;85.00;78.00;;;;;6.35;77.35;102379.91;4973924;28;45522;-71
2023/02/14 09:31:42;;;;;;;;;89.33;83.33;;;;;6.29;77.84;102361.59;4973623;28;45367;-69
2023/02/14 09:39:36;;;;;;;;;84.00;77.67;;;;;6.49;77.95;102374.78;4975564;28;45302;-70
2023/02/14 09:42:25;;;;;;;;;79.67;73.33;;;;;6.55;77.01;102387.00;4975942;28;45382;-70
2023/02/14 09:45:00;;;;;;;;;101.00;91.67;;;;;6.51;76.99;102367.81;4975032;28;45304;-70
2023/02/14 09:47:50;;;;;;;;;95.00;91.67;;;;;6.60;75.84;102387.03;4975598;28;45494;-72
2023/02/14 09:50:30;;;;;;;;;83.33;75.33;;;;;6.64;76.45;102386.19;4976377;28;45524;-69
2023/02/14 09:52:59;;;;;;;;;80.67;69.67;;;;;6.66;75.65;102387.06;4977152;28;45461;-70
2023/02/14 09:55:34;;;;;;;;;83.00;74.33;;;;;6.66;76.39;102381.84;4977242;28;45337;-71
2023/02/14 09:58:03;;;;;;;;;81.67;72.00;;;;;6.76;76.20;102382.75;4975273;28;45443;-69
2023/02/14 10:00:35;;;;;;;;;84.67;75.33;;;;;6.81;76.59;102381.03;4975838;28;45380;-70
2023/02/14 10:03:37;;;;;;;;;83.33;76.33;;;;;6.84;75.34;102371.47;4974770;28;45277;-72
2023/02/14 10:06:11;;;;;;;;;80.00;70.00;;;;;6.91;75.40;102374.09;4974433;28;45884;-69
2023/02/14 10:08:51;;;;;;;;;81.00;73.67;;;;;6.98;75.22;102378.50;4974008;28;46289;-72
2023/02/14 10:11:21;;;;;;;;;80.67;75.00;;;;;7.03;75.18;102375.91;4973709;28;45511;-70
2023/02/14 10:13:55;;;;;;;;;79.67;72.33;;;;;7.05;74.39;102371.56;4973553;28;45334;-70
2023/02/14 10:16:32;;;;;;;;;75.67;66.33;;;;;7.08;74.68;102374.19;4973970;28;45460;-68
2023/02/14 10:19:02;;;;;;;;;77.00;70.67;;;;;7.11;74.02;102377.66;4972161;28;47212;-70
2023/02/14 10:21:40;;;;;;;;;77.33;65.33;;;;;7.13;74.50;102368.06;4974157;28;45353;-69
2023/02/14 10:24:08;;;;;;;;;80.67;74.67;;;;;7.20;74.39;102371.59;4973762;28;45354;-69
2023/02/14 10:26:37;;;;;;;;;80.67;72.33;;;;;7.25;73.14;102369.88;4973958;28;45613;-68
2023/02/14 10:29:06;;;;;;;;;78.67;64.67;;;;;7.30;73.38;102370.75;4972363;28;47142;-69
2023/02/14 10:31:57;;;;;;;;;76.33;67.67;;;;;7.33;73.30;102363.78;4974242;28;45248;-71
2023/02/14 10:34:49;;;;;;;;;77.33;69.00;;;;;7.44;73.31;102378.63;4974105;28;45417;-69
2023/02/14 10:37:42;;;;;;;;;79.33;73.33;;;;;7.51;73.22;102374.28;4973767;28;45631;-69
2023/02/14 10:40:38;;;;;;;;;77.00;70.33;;;;;7.56;72.16;102374.28;4973683;28;45426;-69
2023/02/14 10:43:04;;;;;;;;;80.00;76.67;;;;;7.62;72.42;102369.06;4972518;28;45359;-69
2023/02/14 10:45:40;;;;;;;;;77.00;73.67;;;;;7.69;72.42;102367.31;4973112;28;45464;-69
2023/02/14 10:48:15;;;;;;;;;85.00;85.00;;;;;7.79;72.56;102365.56;4972597;28;45301;-72
2023/02/14 10:51:05;;;;;;;;;81.00;68.33;;;;;7.86;71.79;102354.22;4971827;27;46909;-69
2023/02/14 10:53:43;;;;;;;;;84.67;75.33;;;;;7.89;71.77;102357.69;4973759;28;45479;-69
2023/02/14 10:56:21;;;;;;;;;84.33;72.33;;;;;7.94;71.29;102343.72;4973862;27;45390;-71
2023/02/14 10:58:50;;;;;;;;;90.67;84.67;;;;;8.08;71.25;102343.72;4972384;28;45467;-70
2023/02/14 11:01:17;;;;;;;;;86.00;75.33;;;;;8.15;71.13;102348.06;4974247;28;45447;-72
2023/02/14 11:03:53;;;;;;;;;85.67;75.67;;;;;8.22;71.00;102347.19;4973798;28;45306;-72
2023/02/14 11:06:19;;;;;;;;;83.67;73.67;;;;;8.25;71.19;102334.06;4973335;28;45302;-69
2023/02/14 11:08:44;;;;;;;;;77.00;69.67;;;;;8.37;70.60;102337.53;4973593;28;45381;-70
2023/02/14 11:11:28;;;;;;;;;76.67;72.67;;;;;8.45;70.39;102331.41;4971733;28;46370;-70
2023/02/14 11:13:53;;;;;;;;;76.00;69.67;;;;;8.53;70.11;102334.03;4971595;28;45425;-71
2023/02/14 11:16:39;;;;;;;;;79.00;77.67;;;;;8.60;69.85;102317.41;4972772;28;45438;-71
2023/02/14 11:19:13;;;;;;;;;77.33;71.00;;;;;8.73;69.69;102320.84;4973711;28;45264;-72
2023/02/14 11:21:40;;;;;;;;;81.67;76.00;;;;;8.79;69.73;102316.44;4972275;28;45487;-72
2023/02/14 11:24:32;;;;;;;;;78.67;75.67;;;;;8.91;69.53;102311.13;4972883;28;45424;-71
2023/02/14 11:27:09;;;;;;;;;80.33;78.67;;;;;8.98;69.06;102304.09;4972136;28;45342;-71
2023/02/14 11:29:43;;;;;;;;;81.00;75.33;;;;;9.05;68.92;102303.19;4972671;28;45297;-72
2023/02/14 11:32:33;;;;;;;;;89.67;85.33;;;;;9.17;68.79;102305.72;4971385;28;48009;-72
2023/02/14 11:35:06;;;;;;;;;82.67;75.33;;;;;9.27;68.39;102301.28;4972676;28;45463;-70
2023/02/14 11:37:52;;;;;;;;;79.00;71.00;;;;;9.34;68.45;102287.22;4971609;28;45459;-71
2023/02/14 11:40:43;;;;;;;;;80.33;72.33;;;;;9.40;67.90;102286.28;4972670;28;45553;-70
2023/02/14 11:43:28;;;;;;;;;84.67;82.67;;;;;9.48;67.90;102288.88;4975533;28;46229;-68
2023/02/14 11:46:06;;;;;;;;;81.33;76.67;;;;;9.56;67.10;102287.06;4972433;28;45257;-68